Time;durP1;ratioP1;P1;durP2;ratioP2;P2;SDS_P1;SDS_P2;PMS_P1;PMS_P2;Temp;Humidity;BMP_temperature;BMP_pressure;BME280_temperature;BME280_humidity;BME280_pressure;Samples;Min_cycle;Max_cycle;Signal;HPM_P1;HPM_P2
2022/04/05 00:00:46;;;;;;;11.20;7.47;;;;;;;;;;6161520;23;20021;-82
2022/04/05 00:03:14;;;;;;;9.75;7.85;;;;;;;;;;6162236;23;20017;-80
2022/04/05 00:05:42;;;;;;;10.25;6.97;;;;;;;;;;6155763;23;20040;-81
2022/04/05 00:08:11;;;;;;;8.25;6.38;;;;;;;;;;6136430;23;20017;-81
2022/04/05 00:10:39;;;;;;;9.38;7.00;;;;;;;;;;6127133;23;20026;-80
2022/04/05 00:13:07;;;;;;;13.30;8.30;;;;;;;;;;6159858;23;20540;-83
2022/04/05 00:15:36;;;;;;;11.27;7.45;;;;;;;;;;6162402;23;20014;-82
2022/04/05 00:18:04;;;;;;;13.20;7.97;;;;;;;;;;6155087;23;20025;-81
2022/04/05 00:20:32;;;;;;;8.98;6.72;;;;;;;;;;6153100;23;20022;-83
2022/04/05 00:23:00;;;;;;;10.23;8.70;;;;;;;;;;6161126;23;20018;-82
2022/04/05 00:25:28;;;;;;;12.63;10.32;;;;;;;;;;6156683;23;20025;-83
2022/04/05 00:27:56;;;;;;;11.48;10.32;;;;;;;;;;6151998;23;20036;-87
2022/04/05 00:30:25;;;;;;;11.63;7.50;;;;;;;;;;6102639;23;20029;-84
2022/04/05 00:32:53;;;;;;;9.13;7.07;;;;;;;;;;6126791;23;20503;-84
2022/04/05 00:35:21;;;;;;;13.95;12.05;;;;;;;;;;6154661;23;20013;-85
2022/04/05 00:37:52;;;;;;;12.80;10.23;;;;;;;;;;6154072;23;20080;-85
2022/04/05 00:40:20;;;;;;;12.57;11.15;;;;;;;;;;6162466;23;20338;-84
2022/04/05 00:42:48;;;;;;;9.75;8.50;;;;;;;;;;6163563;23;20017;-82
2022/04/05 00:45:16;;;;;;;14.55;8.43;;;;;;;;;;6157039;23;20036;-81
2022/04/05 00:47:48;;;;;;;12.43;9.07;;;;;;;;;;6163120;23;20021;-83
2022/04/05 00:50:21;;;;;;;8.93;7.07;;;;;;;;;;6154639;23;20026;-81
2022/04/05 00:52:49;;;;;;;12.30;8.60;;;;;;;;;;6159983;23;20036;-80
2022/04/05 00:55:20;;;;;;;12.45;9.55;;;;;;;;;;6176009;23;20523;-81
2022/04/05 00:57:50;;;;;;;10.63;8.75;;;;;;;;;;6131001;23;20449;-83
2022/04/05 01:00:18;;;;;;;13.93;7.68;;;;;;;;;;6192258;23;20032;-82
2022/04/05 01:02:50;;;;;;;10.25;6.70;;;;;;;;;;6132161;23;20013;-81
2022/04/05 01:05:18;;;;;;;10.70;7.63;;;;;;;;;;6188214;23;20349;-81
2022/04/05 01:07:47;;;;;;;11.63;8.13;;;;;;;;;;6166051;23;20524;-82
2022/04/05 01:10:15;;;;;;;11.40;8.07;;;;;;;;;;6183828;23;20017;-82
2022/04/05 01:12:43;;;;;;;11.60;8.10;;;;;;;;;;6164558;23;20032;-81
2022/04/05 01:15:12;;;;;;;7.32;6.47;;;;;;;;;;6193401;23;20009;-80
2022/04/05 01:17:40;;;;;;;10.13;9.02;;;;;;;;;;6155087;23;20471;-82
2022/04/05 01:20:09;;;;;;;7.38;6.35;;;;;;;;;;6192605;23;20020;-83
2022/04/05 01:22:45;;;;;;;8.55;6.68;;;;;;;;;;6155889;23;20029;-82
2022/04/05 01:25:17;;;;;;;8.07;7.00;;;;;;;;;;6187960;23;20029;-82
2022/04/05 01:27:45;;;;;;;10.30;8.70;;;;;;;;;;6192899;23;20013;-82
2022/04/05 01:30:14;;;;;;;13.15;7.65;;;;;;;;;;6184108;23;20021;-82
2022/04/05 01:32:42;;;;;;;9.60;7.78;;;;;;;;;;6190407;23;20021;-81
2022/04/05 01:35:10;;;;;;;11.23;9.88;;;;;;;;;;6166396;23;20020;-84
2022/04/05 01:37:38;;;;;;;9.20;7.60;;;;;;;;;;6185448;23;20031;-83
2022/04/05 01:40:07;;;;;;;9.13;7.22;;;;;;;;;;6155077;23;20021;-82
2022/04/05 01:42:37;;;;;;;10.15;8.38;;;;;;;;;;6182504;23;20029;-83
2022/04/05 01:45:05;;;;;;;9.32;8.27;;;;;;;;;;6188789;23;20349;-82
2022/04/05 01:47:33;;;;;;;21.23;6.35;;;;;;;;;;6192063;23;20020;-81
2022/04/05 01:50:01;;;;;;;7.68;6.60;;;;;;;;;;6184063;23;20029;-82
2022/04/05 01:52:29;;;;;;;6.60;5.78;;;;;;;;;;6155399;23;20017;-84
2022/04/05 01:54:57;;;;;;;8.45;7.65;;;;;;;;;;6155976;23;20034;-84
2022/04/05 01:57:25;;;;;;;11.60;8.60;;;;;;;;;;6160792;23;20036;-83
2022/04/05 02:00:14;;;;;;;8.43;7.18;;;;;;;;;;6155711;23;20020;-84
2022/04/05 02:03:38;;;;;;;10.55;7.53;;;;;;;;;;6170821;23;20032;-84
2022/04/05 02:07:04;;;;;;;9.23;6.57;;;;;;;;;;6070957;23;20036;-83
2022/04/05 02:10:27;;;;;;;9.35;6.47;;;;;;;;;;6137326;23;20029;-81
2022/04/05 02:13:59;;;;;;;8.32;7.50;;;;;;;;;;6129955;23;20021;-83
2022/04/05 02:17:14;;;;;;;14.55;6.32;;;;;;;;;;6153536;23;20353;-83
2022/04/05 02:20:47;;;;;;;6.90;5.95;;;;;;;;;;6166254;23;20017;-83
2022/04/05 02:24:13;;;;;;;7.80;7.07;;;;;;;;;;6167435;23;20024;-82
2022/04/05 02:27:38;;;;;;;6.88;4.80;;;;;;;;;;6145918;23;20060;-82
2022/04/05 02:31:06;;;;;;;6.97;5.20;;;;;;;;;;6145152;23;20035;-83
2022/04/05 02:34:05;;;;;;;9.02;8.07;;;;;;;;;;6129931;23;20025;-84
2022/04/05 02:37:31;;;;;;;7.57;6.30;;;;;;;;;;6169389;23;20036;-82
2022/04/05 02:40:36;;;;;;;7.22;6.50;;;;;;;;;;6189812;23;20025;-83
2022/04/05 02:43:05;;;;;;;8.38;7.18;;;;;;;;;;6166009;23;20456;-83
2022/04/05 02:45:33;;;;;;;7.82;6.03;;;;;;;;;;6159898;23;20021;-83
2022/04/05 02:48:03;;;;;;;6.88;5.93;;;;;;;;;;6130226;23;20388;-83
2022/04/05 02:50:32;;;;;;;10.52;6.20;;;;;;;;;;6181928;23;20029;-82
2022/04/05 02:52:59;;;;;;;7.93;5.82;;;;;;;;;;6187784;23;20021;-83
2022/04/05 02:55:28;;;;;;;6.07;5.47;;;;;;;;;;6131136;23;20025;-82
2022/04/05 02:57:57;;;;;;;10.75;5.55;;;;;;;;;;6184366;23;20464;-81
2022/04/05 03:00:31;;;;;;;8.80;5.65;;;;;;;;;;6164023;23;20024;-81
2022/04/05 03:03:03;;;;;;;6.15;4.97;;;;;;;;;;6165432;23;20028;-81
2022/04/05 03:05:32;;;;;;;8.45;6.85;;;;;;;;;;6159484;23;20040;-81
2022/04/05 03:08:05;;;;;;;6.32;4.90;;;;;;;;;;6164075;23;20017;-82
2022/04/05 03:10:34;;;;;;;5.82;3.75;;;;;;;;;;6129834;23;20029;-82
2022/04/05 03:13:04;;;;;;;5.93;5.00;;;;;;;;;;6130440;23;20021;-81
2022/04/05 03:15:32;;;;;;;5.97;4.25;;;;;;;;;;6165569;23;20021;-81
2022/04/05 03:18:03;;;;;;;9.73;6.72;;;;;;;;;;6182541;23;20037;-82
2022/04/05 03:20:34;;;;;;;4.90;4.43;;;;;;;;;;6190314;23;20020;-81
2022/04/05 03:23:04;;;;;;;21.33;5.32;;;;;;;;;;6130660;23;20028;-82
2022/04/05 03:25:32;;;;;;;4.65;4.25;;;;;;;;;;6161700;23;20024;-82
2022/04/05 03:28:02;;;;;;;5.68;5.13;;;;;;;;;;6166932;23;20021;-83
2022/04/05 03:30:31;;;;;;;8.77;7.18;;;;;;;;;;6157233;23;20371;-82
2022/04/05 03:33:01;;;;;;;8.85;4.95;;;;;;;;;;6163547;23;20467;-84
2022/04/05 03:35:30;;;;;;;4.68;4.13;;;;;;;;;;6157646;23;20032;-81
2022/04/05 03:37:59;;;;;;;4.57;4.18;;;;;;;;;;6158939;23;20376;-81
2022/04/05 03:40:28;;;;;;;7.20;4.72;;;;;;;;;;6165283;23;20028;-82
2022/04/05 03:43:00;;;;;;;;;;;;;;;;;;6167820;23;20017;-82
2022/04/05 03:45:28;;;;;;;5.70;5.20;;;;;;;;;;6188041;23;19920;-82
2022/04/05 03:47:57;;;;;;;7.70;4.78;;;;;;;;;;6166997;23;20020;-82
2022/04/05 03:50:25;;;;;;;6.30;5.07;;;;;;;;;;6183365;23;20029;-81
2022/04/05 03:52:59;;;;;;;6.43;4.35;;;;;;;;;;6160610;23;20421;-83
2022/04/05 03:55:30;;;;;;;6.03;4.78;;;;;;;;;;6156217;23;20024;-82
2022/04/05 03:58:01;;;;;;;7.47;4.43;;;;;;;;;;6158613;23;20360;-83
2022/04/05 04:00:30;;;;;;;5.68;5.20;;;;;;;;;;6191526;23;20329;-81
2022/04/05 04:03:19;;;;;;;10.05;6.95;;;;;;;;;;6182555;23;20043;-88
2022/04/05 04:05:49;;;;;;;5.32;4.85;;;;;;;;;;6160292;23;20021;-81
2022/04/05 04:08:18;;;;;;;5.30;4.80;;;;;;;;;;6165614;23;20020;-82
2022/04/05 04:10:51;;;;;;;5.15;4.28;;;;;;;;;;6167238;23;20013;-83
2022/04/05 04:13:22;;;;;;;7.15;3.90;;;;;;;;;;6188411;23;20539;-83
2022/04/05 04:15:53;;;;;;;4.68;4.15;;;;;;;;;;6132446;23;20028;-85
2022/04/05 04:18:21;;;;;;;7.20;5.47;;;;;;;;;;6131229;23;20029;-81
2022/04/05 04:20:52;;;;;;;4.25;3.28;;;;;;;;;;6164176;23;20029;-83
2022/04/05 04:23:22;;;;;;;5.80;4.28;;;;;;;;;;6166177;23;20013;-82
2022/04/05 04:25:54;;;;;;;7.72;4.20;;;;;;;;;;6159321;23;20032;-83
2022/04/05 04:28:22;;;;;;;4.40;3.95;;;;;;;;;;6165366;23;20024;-84
2022/04/05 04:30:50;;;;;;;4.00;3.17;;;;;;;;;;6193788;23;20047;-82
2022/04/05 04:33:19;;;;;;;5.57;4.60;;;;;;;;;;6188457;23;20033;-82
2022/04/05 04:35:47;;;;;;;3.78;3.15;;;;;;;;;;6193297;23;20329;-82
2022/04/05 04:38:15;;;;;;;5.03;4.50;;;;;;;;;;6157691;23;20025;-85
2022/04/05 04:40:47;;;;;;;4.75;3.88;;;;;;;;;;6156166;23;20073;-81
2022/04/05 04:43:16;;;;;;;4.95;4.13;;;;;;;;;;6193755;23;20024;-83
2022/04/05 04:45:44;;;;;;;5.20;4.35;;;;;;;;;;6183737;23;20021;-83
2022/04/05 04:48:13;;;;;;;4.80;3.90;;;;;;;;;;6166072;23;20017;-82
2022/04/05 04:50:41;;;;;;;4.95;4.35;;;;;;;;;;6182470;23;20029;-83
2022/04/05 04:53:09;;;;;;;4.97;3.58;;;;;;;;;;6155123;23;20456;-84
2022/04/05 04:55:37;;;;;;;5.38;3.90;;;;;;;;;;6185280;23;20024;-85
2022/04/05 04:58:26;;;;;;;4.03;3.28;;;;;;;;;;6183821;23;20024;-88
2022/04/05 05:00:56;;;;;;;4.57;2.85;;;;;;;;;;6156328;23;20025;-82
2022/04/05 05:03:24;;;;;;;6.25;4.47;;;;;;;;;;6156415;23;20449;-83
2022/04/05 05:05:54;;;;;;;3.65;3.28;;;;;;;;;;6131285;23;20032;-81
2022/04/05 05:08:22;;;;;;;4.03;3.67;;;;;;;;;;6164962;23;20024;-83
2022/04/05 05:10:50;;;;;;;3.15;2.95;;;;;;;;;;6166176;23;20027;-79
2022/04/05 05:13:20;;;;;;;4.13;3.72;;;;;;;;;;6161311;23;20025;-82
2022/04/05 05:15:50;;;;;;;6.93;4.35;;;;;;;;;;6167377;23;20032;-81
2022/04/05 05:18:46;;;;;;;5.30;4.63;;;;;;;;;;6157178;23;20029;-85
2022/04/05 05:21:15;;;;;;;11.00;5.72;;;;;;;;;;6188059;23;20025;-83
2022/04/05 05:23:43;;;;;;;6.03;5.43;;;;;;;;;;6165767;23;20036;-85
2022/04/05 05:26:11;;;;;;;5.55;5.07;;;;;;;;;;6157891;23;20025;-81
2022/04/05 05:28:39;;;;;;;7.32;5.60;;;;;;;;;;6190261;23;20341;-84
2022/04/05 05:31:08;;;;;;;4.30;3.90;;;;;;;;;;6156395;23;20017;-82
2022/04/05 05:33:36;;;;;;;6.68;5.43;;;;;;;;;;6155466;23;20061;-84
2022/04/05 05:36:04;;;;;;;5.88;5.20;;;;;;;;;;6166638;23;20016;-82
2022/04/05 05:38:32;;;;;;;7.13;6.43;;;;;;;;;;6130049;23;20025;-86
2022/04/05 05:41:00;;;;;;;4.45;4.05;;;;;;;;;;6162735;23;20036;-84
2022/04/05 05:43:32;;;;;;;6.80;5.82;;;;;;;;;;6166489;23;20016;-84
2022/04/05 05:46:03;;;;;;;5.65;5.13;;;;;;;;;;6158895;23;20357;-84
2022/04/05 05:48:46;;;;;;;8.27;6.10;;;;;;;;;;6164539;23;20017;-84
2022/04/05 05:51:45;;;;;;;7.15;5.20;;;;;;;;;;6155737;23;20025;-83
2022/04/05 05:54:13;;;;;;;5.97;4.35;;;;;;;;;;6149749;23;20036;-85
2022/04/05 05:56:42;;;;;;;4.68;4.22;;;;;;;;;;6150558;23;20033;-80
2022/04/05 05:59:24;;;;;;;4.30;3.95;;;;;;;;;;6162421;23;20043;-83
2022/04/05 06:02:04;;;;;;;6.25;4.93;;;;;;;;;;6153287;23;20022;-83
2022/04/05 06:04:32;;;;;;;8.90;5.22;;;;;;;;;;6160803;23;20326;-82
2022/04/05 06:07:00;;;;;;;6.18;4.75;;;;;;;;;;6162830;23;20010;-81
2022/04/05 06:09:28;;;;;;;5.68;4.05;;;;;;;;;;6155716;23;20032;-83
2022/04/05 06:11:56;;;;;;;7.63;6.07;;;;;;;;;;6163086;23;20035;-88
2022/04/05 06:14:24;;;;;;;5.10;4.00;;;;;;;;;;6151132;23;20036;-84
2022/04/05 06:16:52;;;;;;;9.93;4.80;;;;;;;;;;6158175;23;20029;-86
2022/04/05 06:19:20;;;;;;;3.42;3.13;;;;;;;;;;6126288;23;20424;-82
2022/04/05 06:21:48;;;;;;;5.60;3.72;;;;;;;;;;6154166;23;20472;-81
2022/04/05 06:24:18;;;;;;;9.30;5.57;;;;;;;;;;6161066;23;20013;-80
2022/04/05 06:26:46;;;;;;;5.03;4.57;;;;;;;;;;6162519;23;20362;-84
2022/04/05 06:29:16;;;;;;;6.97;5.88;;;;;;;;;;6157474;23;20037;-81
2022/04/05 06:31:44;;;;;;;4.43;3.95;;;;;;;;;;6162576;23;20346;-82
2022/04/05 06:34:13;;;;;;;5.57;3.70;;;;;;;;;;6153714;23;20025;-81
2022/04/05 06:36:41;;;;;;;4.53;4.13;;;;;;;;;;6158849;23;20029;-83
2022/04/05 06:39:09;;;;;;;3.95;3.63;;;;;;;;;;6159544;23;20022;-82
2022/04/05 06:41:37;;;;;;;5.53;5.03;;;;;;;;;;6149984;23;20036;-85
2022/04/05 06:44:05;;;;;;;5.80;4.22;;;;;;;;;;6151311;23;20424;-85
2022/04/05 06:46:33;;;;;;;4.38;3.35;;;;;;;;;;6126417;23;20336;-83
2022/04/05 06:49:03;;;;;;;6.43;3.85;;;;;;;;;;6100873;23;20411;-82
2022/04/05 06:51:31;;;;;;;3.75;3.40;;;;;;;;;;6162766;23;20035;-82
2022/04/05 06:53:59;;;;;;;4.32;3.45;;;;;;;;;;6156839;23;20048;-83
2022/04/05 06:56:29;;;;;;;4.20;3.90;;;;;;;;;;6161197;23;20507;-81
2022/04/05 06:59:07;;;;;;;5.03;4.30;;;;;;;;;;6107629;23;20020;-80
2022/04/05 07:01:51;;;;;;;6.30;5.72;;;;;;;;;;6157009;23;20021;-81
2022/04/05 07:04:34;;;;;;;5.25;4.60;;;;;;;;;;6153197;23;20017;-81
2022/04/05 07:07:09;;;;;;;6.93;5.32;;;;;;;;;;6130665;23;20322;-81
2022/04/05 07:09:40;;;;;;;13.68;4.93;;;;;;;;;;6152458;23;20025;-81
2022/04/05 07:12:17;;;;;;;13.27;6.97;;;;;;;;;;6164617;23;20017;-81
2022/04/05 07:15:05;;;;;;;5.28;4.30;;;;;;;;;;6104600;23;20033;-82
2022/04/05 07:17:38;;;;;;;7.82;4.25;;;;;;;;;;6158461;23;20025;-81
2022/04/05 07:20:30;;;;;;;4.97;4.47;;;;;;;;;;6128881;23;20017;-81
2022/04/05 07:22:59;;;;;;;3.22;3.03;;;;;;;;;;6129272;23;20017;-80
2022/04/05 07:25:29;;;;;;;4.10;3.80;;;;;;;;;;6158288;23;20021;-80
2022/04/05 07:28:02;;;;;;;3.88;3.55;;;;;;;;;;6180357;23;20021;-81
2022/04/05 07:30:36;;;;;;;5.70;5.05;;;;;;;;;;6129321;23;20025;-83
2022/04/05 07:33:08;;;;;;;6.75;4.78;;;;;;;;;;6180403;23;20021;-80
2022/04/05 07:35:36;;;;;;;5.15;4.65;;;;;;;;;;6165157;23;20013;-81
2022/04/05 07:38:05;;;;;;;4.07;3.67;;;;;;;;;;6154971;23;20032;-80
2022/04/05 07:40:48;;;;;;;4.90;4.53;;;;;;;;;;6189075;23;20023;-80
2022/04/05 07:43:20;;;;;;;5.15;3.47;;;;;;;;;;6154231;23;20456;-81
2022/04/05 07:45:50;;;;;;;4.43;4.05;;;;;;;;;;6153498;23;20025;-81
2022/04/05 07:48:20;;;;;;;5.85;4.55;;;;;;;;;;6188973;23;20013;-81
2022/04/05 07:50:49;;;;;;;4.10;3.75;;;;;;;;;;6191131;23;20021;-81
2022/04/05 07:53:17;;;;;;;5.88;4.22;;;;;;;;;;6158620;23;20025;-80
2022/04/05 07:55:46;;;;;;;7.45;4.53;;;;;;;;;;6182535;23;20028;-81
2022/04/05 07:58:18;;;;;;;5.75;4.38;;;;;;;;;;6155204;23;20048;-85
2022/04/05 08:00:46;;;;;;;6.25;4.40;;;;;;;;;;6187793;23;20021;-81
2022/04/05 08:03:14;;;;;;;4.10;3.50;;;;;;;;;;6153953;23;20444;-81
2022/04/05 08:05:42;;;;;;;6.07;5.15;;;;;;;;;;6184187;23;20025;-82
2022/04/05 08:08:11;;;;;;;5.57;4.60;;;;;;;;;;6153042;23;20021;-82
2022/04/05 08:10:58;;;;;;;5.45;4.88;;;;;;;;;;6161719;23;20025;-82
2022/04/05 08:13:26;;;;;;;6.38;4.55;;;;;;;;;;6157089;23;20025;-82
2022/04/05 08:15:55;;;;;;;5.22;4.20;;;;;;;;;;6128072;23;20348;-88
2022/04/05 08:18:26;;;;;;;4.20;3.78;;;;;;;;;;6127209;23;20036;-87
2022/04/05 08:20:54;;;;;;;4.32;3.92;;;;;;;;;;6186224;23;20029;-83
2022/04/05 08:23:29;;;;;;;6.00;5.50;;;;;;;;;;6127489;23;20858;-88
2022/04/05 08:25:58;;;;;;;4.70;3.55;;;;;;;;;;6127588;23;20788;-84
2022/04/05 08:28:26;;;;;;;4.82;3.80;;;;;;;;;;6127134;23;20028;-82
2022/04/05 08:30:54;;;;;;;4.32;3.35;;;;;;;;;;6162241;23;20024;-83
2022/04/05 08:33:25;;;;;;;5.40;3.47;;;;;;;;;;6183733;23;20029;-83
2022/04/05 08:35:58;;;;;;;4.15;3.38;;;;;;;;;;6127904;23;20476;-81
2022/04/05 08:38:28;;;;;;;5.72;3.70;;;;;;;;;;6179079;23;20025;-86
2022/04/05 08:40:57;;;;;;;4.37;3.30;;;;;;;;;;6159394;23;20035;-86
2022/04/05 08:43:26;;;;;;;2.97;2.70;;;;;;;;;;6189963;23;20021;-85
2022/04/05 08:45:59;;;;;;;3.40;3.17;;;;;;;;;;6156239;23;20029;-82
2022/04/05 08:48:29;;;;;;;3.58;2.50;;;;;;;;;;6151754;23;20032;-84
2022/04/05 08:50:58;;;;;;;8.18;2.97;;;;;;;;;;6104602;23;20017;-85
2022/04/05 08:53:28;;;;;;;3.40;3.10;;;;;;;;;;6127810;23;20028;-88
2022/04/05 08:55:56;;;;;;;4.32;3.97;;;;;;;;;;6104383;23;20032;-84
2022/04/05 08:58:24;;;;;;;4.53;4.13;;;;;;;;;;6153704;23;20064;-83
2022/04/05 09:00:56;;;;;;;3.95;3.65;;;;;;;;;;6128175;23;20047;-86
2022/04/05 09:03:24;;;;;;;3.60;2.63;;;;;;;;;;6189887;23;20061;-83
2022/04/05 09:05:53;;;;;;;3.33;3.08;;;;;;;;;;6156832;23;20487;-82
2022/04/05 09:08:22;;;;;;;3.53;3.33;;;;;;;;;;6187844;23;20013;-84
2022/04/05 09:10:55;;;;;;;3.40;2.92;;;;;;;;;;6128571;23;20602;-85
2022/04/05 09:13:25;;;;;;;3.03;2.67;;;;;;;;;;6184687;23;20483;-83
2022/04/05 09:15:56;;;;;;;;;;;;;;;;;;6165097;23;20025;-81
2022/04/05 09:18:28;;;;;;;3.65;3.35;;;;;;;;;;6127237;23;20328;-83
2022/04/05 09:20:56;;;;;;;3.40;3.13;;;;;;;;;;6186254;23;20021;-84
2022/04/05 09:23:28;;;;;;;2.67;2.50;;;;;;;;;;6162548;23;20013;-86
2022/04/05 09:26:18;;;;;;;2.22;2.13;;;;;;;;;;6155662;23;20021;-83
2022/04/05 09:28:47;;;;;;;3.00;2.47;;;;;;;;;;6135612;23;20021;-82
2022/04/05 09:31:17;;;;;;;4.80;3.15;;;;;;;;;;6188871;23;20736;-83
2022/04/05 09:34:03;;;;;;;3.45;3.15;;;;;;;;;;6126788;23;20025;-87
2022/04/05 09:36:38;;;;;;;2.50;2.30;;;;;;;;;;6160301;23;20021;-84
2022/04/05 09:39:17;;;;;;;3.60;2.47;;;;;;;;;;6126330;23;20017;-85
2022/04/05 09:41:46;;;;;;;2.65;1.98;;;;;;;;;;6126786;23;20028;-82
2022/04/05 09:44:24;;;;;;;3.53;3.03;;;;;;;;;;6152377;23;20020;-85
2022/04/05 09:47:01;;;;;;;3.22;2.33;;;;;;;;;;6160011;23;20338;-86
2022/04/05 09:49:37;;;;;;;3.90;2.67;;;;;;;;;;6156346;23;20029;-86
2022/04/05 09:52:25;;;;;;;5.93;3.70;;;;;;;;;;6188935;23;20017;-86
2022/04/05 09:55:12;;;;;;;4.68;3.05;;;;;;;;;;6138772;23;20024;-82
2022/04/05 09:57:41;;;;;;;2.72;2.53;;;;;;;;;;6155693;23;20033;-85
2022/04/05 10:00:12;;;;;;;2.83;2.53;;;;;;;;;;6188621;23;20040;-85
2022/04/05 10:02:59;;;;;;;2.28;2.00;;;;;;;;;;6177449;23;20035;-82
2022/04/05 10:05:31;;;;;;;7.68;3.65;;;;;;;;;;6151087;23;20025;-82
2022/04/05 10:08:00;;;;;;;10.88;3.47;;;;;;;;;;6187056;23;20021;-83
2022/04/05 10:10:28;;;;;;;6.22;4.43;;;;;;;;;;6151856;23;20600;-81
2022/04/05 10:12:56;;;;;;;4.85;2.25;;;;;;;;;;6185001;23;20025;-83
2022/04/05 10:15:25;;;;;;;6.00;3.55;;;;;;;;;;6188580;23;20017;-81
2022/04/05 10:17:53;;;;;;;3.47;2.28;;;;;;;;;;6179860;23;20032;-80
2022/04/05 10:20:22;;;;;;;3.17;2.35;;;;;;;;;;6186402;23;20017;-83
2022/04/05 10:22:56;;;;;;;2.58;2.38;;;;;;;;;;6187672;23;20013;-81
2022/04/05 10:25:28;;;;;;;3.38;3.03;;;;;;;;;;6156166;23;20031;-81
2022/04/05 10:28:00;;;;;;;4.25;2.22;;;;;;;;;;6187959;23;20013;-81
2022/04/05 10:30:33;;;;;;;5.30;2.03;;;;;;;;;;6177913;23;20028;-81
2022/04/05 10:33:06;;;;;;;2.40;2.00;;;;;;;;;;6182577;23;20040;-79
2022/04/05 10:35:38;;;;;;;5.75;2.63;;;;;;;;;;6161061;23;20017;-80
2022/04/05 10:38:11;;;;;;;3.00;2.40;;;;;;;;;;6149081;23;20837;-81
2022/04/05 10:40:39;;;;;;;3.65;3.35;;;;;;;;;;6150113;23;20527;-81
2022/04/05 10:43:17;;;;;;;3.13;2.03;;;;;;;;;;6187761;23;20017;-78
2022/04/05 10:45:46;;;;;;;2.60;2.40;;;;;;;;;;6180676;23;20025;-77
2022/04/05 10:48:16;;;;;;;2.35;2.10;;;;;;;;;;6186659;23;20017;-82
2022/04/05 10:51:03;;;;;;;2.17;2.00;;;;;;;;;;6159790;23;20336;-82
2022/04/05 10:53:39;;;;;;;2.67;2.47;;;;;;;;;;6124942;23;20029;-82
2022/04/05 10:56:11;;;;;;;3.08;2.33;;;;;;;;;;6126371;23;20020;-81
2022/04/05 10:58:42;;;;;;;2.53;2.30;;;;;;;;;;6068038;23;20032;-81
2022/04/05 11:01:17;;;;;;;3.35;2.45;;;;;;;;;;6124189;23;20030;-81
2022/04/05 11:04:04;;;;;;;4.35;4.05;;;;;;;;;;6127174;23;20036;-82
2022/04/05 11:06:52;;;;;;;2.58;2.30;;;;;;;;;;6067945;23;20053;-82
2022/04/05 11:09:27;;;;;;;2.88;2.70;;;;;;;;;;6115785;23;20540;-82
2022/04/05 11:11:56;;;;;;;3.13;2.67;;;;;;;;;;6126763;23;20030;-79
2022/04/05 11:14:45;;;;;;;4.00;3.10;;;;;;;;;;6092569;23;20357;-82
2022/04/05 11:17:17;;;;;;;3.78;3.45;;;;;;;;;;6123446;23;20033;-80
2022/04/05 11:19:47;;;;;;;2.90;2.60;;;;;;;;;;6101519;23;20029;-82
2022/04/05 11:22:21;;;;;;;3.30;2.95;;;;;;;;;;6119666;23;20022;-85
2022/04/05 11:25:00;;;;;;;4.25;2.70;;;;;;;;;;6116723;23;20346;-82
2022/04/05 11:27:38;;;;;;;2.40;1.98;;;;;;;;;;6126060;23;20014;-85
2022/04/05 11:30:22;;;;;;;3.20;2.92;;;;;;;;;;6120214;23;20022;-86
2022/04/05 11:33:14;;;;;;;5.55;3.88;;;;;;;;;;6069926;23;20049;-90
2022/04/05 11:35:45;;;;;;;4.03;3.03;;;;;;;;;;6068178;23;20410;-86
2022/04/05 11:38:18;;;;;;;2.97;2.78;;;;;;;;;;6067287;23;20030;-86
2022/04/05 11:40:55;;;;;;;4.03;2.58;;;;;;;;;;6045968;23;20033;-90
2022/04/05 11:43:28;;;;;;;2.72;2.53;;;;;;;;;;6093799;23;20032;-90
2022/04/05 11:45:57;;;;;;;3.28;2.53;;;;;;;;;;6120814;23;20025;-88
2022/04/05 11:48:29;;;;;;;2.28;2.05;;;;;;;;;;6070089;23;20018;-88
2022/04/05 11:51:02;;;;;;;2.88;2.53;;;;;;;;;;6104053;23;20025;-85
2022/04/05 11:53:31;;;;;;;1.73;1.63;;;;;;;;;;6092424;23;20040;-86
2022/04/05 11:56:09;;;;;;;4.07;3.75;;;;;;;;;;6146579;23;20404;-80
2022/04/05 11:58:38;;;;;;;3.40;3.10;;;;;;;;;;6123381;23;20026;-89
2022/04/05 12:01:07;;;;;;;3.28;2.97;;;;;;;;;;6123919;23;20022;-89
2022/04/05 12:03:50;;;;;;;3.83;2.65;;;;;;;;;;6133538;23;20018;-86
2022/04/05 12:06:19;;;;;;;3.63;2.78;;;;;;;;;;6124931;23;20029;-86
2022/04/05 12:08:49;;;;;;;3.20;2.85;;;;;;;;;;6121701;23;20026;-89
2022/04/05 12:11:18;;;;;;;2.80;2.22;;;;;;;;;;6124162;23;20078;-89
2022/04/05 12:13:57;;;;;;;3.80;3.08;;;;;;;;;;6152270;23;20028;-86
2022/04/05 12:16:32;;;;;;;4.45;2.35;;;;;;;;;;6100150;23;20024;-89
2022/04/05 12:19:08;;;;;;;12.80;4.00;;;;;;;;;;6124181;23;20023;-88
2022/04/05 12:21:37;;;;;;;2.47;2.28;;;;;;;;;;6099552;23;20049;-87
2022/04/05 12:24:06;;;;;;;3.55;2.47;;;;;;;;;;6099507;23;20462;-88
2022/04/05 12:26:35;;;;;;;3.15;2.42;;;;;;;;;;6099222;23;20343;-88
2022/04/05 12:29:05;;;;;;;;;;;;;;;;;;6123164;23;20029;-81
2022/04/05 12:31:34;;;;;;;2.53;2.05;;;;;;;;;;6156812;23;20094;-81
2022/04/05 12:34:02;;;;;;;2.33;2.17;;;;;;;;;;6099283;23;20452;-82
2022/04/05 12:36:34;;;;;;;7.05;3.03;;;;;;;;;;6121702;23;20386;-81
2022/04/05 12:39:03;;;;;;;5.13;2.65;;;;;;;;;;6121787;23;20022;-81
2022/04/05 12:41:41;;;;;;;3.45;2.72;;;;;;;;;;6098298;23;20029;-82
2022/04/05 12:44:13;;;;;;;3.15;2.13;;;;;;;;;;6147037;23;20033;-81
2022/04/05 12:46:42;;;;;;;2.75;2.30;;;;;;;;;;6146127;23;20025;-81
2022/04/05 12:49:17;;;;;;;2.17;1.65;;;;;;;;;;6083599;23;20026;-81
2022/04/05 12:52:11;;;;;;;2.05;1.95;;;;;;;;;;6158576;23;20020;-82
2022/04/05 12:54:47;;;;;;;5.15;2.10;;;;;;;;;;6121251;23;20030;-81
2022/04/05 12:57:35;;;;;;;3.15;2.53;;;;;;;;;;6121638;23;20472;-81
2022/04/05 13:00:13;;;;;;;2.55;2.33;;;;;;;;;;6132586;23;20021;-81
2022/04/05 13:02:43;;;;;;;2.10;1.95;;;;;;;;;;6146230;23;20060;-82
2022/04/05 13:08:05;;;;;;;2.17;1.70;;;;;;;;;;6121508;23;20025;-80
2022/04/05 13:10:40;;;;;;;2.10;1.95;;;;;;;;;;6122936;23;20029;-81
2022/04/05 13:13:22;;;;;;;4.47;2.03;;;;;;;;;;6152636;23;20021;-81
2022/04/05 13:16:03;;;;;;;9.38;3.13;;;;;;;;;;6159145;23;20028;-80
2022/04/05 13:18:36;;;;;;;2.25;1.90;;;;;;;;;;6122437;23;20749;-82
2022/04/05 13:21:06;;;;;;;1.80;1.60;;;;;;;;;;6146988;23;20743;-80
2022/04/05 13:23:35;;;;;;;2.25;1.63;;;;;;;;;;6147235;23;20026;-79
2022/04/05 13:26:18;;;;;;;2.28;1.50;;;;;;;;;;6150343;23;20025;-82
2022/04/05 13:28:46;;;;;;;2.88;2.60;;;;;;;;;;6155490;23;20029;-84
2022/04/05 13:31:15;;;;;;;1.77;1.63;;;;;;;;;;6158754;23;20017;-83
2022/04/05 13:33:45;;;;;;;3.13;2.65;;;;;;;;;;6150763;23;20457;-80
2022/04/05 13:36:13;;;;;;;3.95;3.65;;;;;;;;;;6131556;23;20017;-81
2022/04/05 13:38:41;;;;;;;2.15;2.00;;;;;;;;;;6120502;23;20037;-82
2022/04/05 13:41:11;;;;;;;3.10;2.05;;;;;;;;;;6146356;23;20044;-83
2022/04/05 13:43:39;;;;;;;5.47;2.45;;;;;;;;;;6158870;23;20024;-83
2022/04/05 13:46:08;;;;;;;2.72;2.45;;;;;;;;;;6150718;23;20473;-81
2022/04/05 13:48:43;;;;;;;2.88;2.50;;;;;;;;;;6121944;23;20021;-84
2022/04/05 13:51:16;;;;;;;2.65;2.45;;;;;;;;;;6132268;23;20036;-84
2022/04/05 13:54:05;;;;;;;2.53;2.33;;;;;;;;;;6152435;23;20029;-83
2022/04/05 13:56:36;;;;;;;3.58;2.05;;;;;;;;;;6186186;23;20449;-84
2022/04/05 13:59:05;;;;;;;3.40;2.55;;;;;;;;;;6161007;23;20483;-78
2022/04/05 14:01:35;;;;;;;3.80;3.42;;;;;;;;;;6182218;23;20672;-79
2022/04/05 14:04:13;;;;;;;4.50;3.38;;;;;;;;;;6161783;23;20020;-88
2022/04/05 14:06:44;;;;;;;3.13;2.70;;;;;;;;;;6129033;23;20017;-86
2022/04/05 14:09:25;;;;;;;8.52;2.30;;;;;;;;;;6126472;23;20025;-87
2022/04/05 14:12:20;;;;;;;3.78;3.42;;;;;;;;;;6155722;23;20024;-84
2022/04/05 14:14:54;;;;;;;3.30;3.00;;;;;;;;;;6103701;23;20029;-79
2022/04/05 14:17:22;;;;;;;6.13;3.38;;;;;;;;;;6126176;23;20074;-79
2022/04/05 14:19:50;;;;;;;3.00;2.60;;;;;;;;;;6186854;23;20053;-79
2022/04/05 14:22:18;;;;;;;2.65;2.17;;;;;;;;;;6152546;23;20020;-80
2022/04/05 14:24:46;;;;;;;1.92;1.80;;;;;;;;;;6149612;23;20017;-79
2022/04/05 14:27:20;;;;;;;2.55;2.35;;;;;;;;;;6161014;23;20310;-80
2022/04/05 14:29:48;;;;;;;6.28;2.60;;;;;;;;;;6154210;23;20029;-79
2022/04/05 14:32:17;;;;;;;3.13;2.92;;;;;;;;;;6161465;23;20024;-78
2022/04/05 14:34:45;;;;;;;2.53;2.33;;;;;;;;;;6176686;23;20665;-81
2022/04/05 14:37:13;;;;;;;2.45;1.90;;;;;;;;;;6156608;23;20029;-81
2022/04/05 14:39:42;;;;;;;2.00;1.90;;;;;;;;;;6126073;23;20021;-78
2022/04/05 14:42:10;;;;;;;4.07;1.98;;;;;;;;;;6150786;23;20029;-79
2022/04/05 14:44:38;;;;;;;3.58;2.95;;;;;;;;;;6185941;23;20016;-80
2022/04/05 14:47:06;;;;;;;2.75;2.53;;;;;;;;;;6126476;23;20024;-80
2022/04/05 14:49:34;;;;;;;1.77;1.67;;;;;;;;;;6176023;23;20376;-78
2022/04/05 14:52:02;;;;;;;2.03;1.83;;;;;;;;;;6161768;23;20040;-80
2022/04/05 14:54:31;;;;;;;3.05;2.45;;;;;;;;;;6149948;23;20036;-80
2022/04/05 14:56:59;;;;;;;2.00;1.90;;;;;;;;;;6157428;23;20032;-80
2022/04/05 14:59:34;;;;;;;1.77;1.67;;;;;;;;;;6150615;23;20021;-80
2022/04/05 15:02:02;;;;;;;1.85;1.73;;;;;;;;;;6150092;23;20028;-80
2022/04/05 15:04:31;;;;;;;2.58;1.67;;;;;;;;;;6125464;23;20036;-80
2022/04/05 15:07:00;;;;;;;1.80;1.70;;;;;;;;;;6151242;23;20025;-80
2022/04/05 15:09:29;;;;;;;2.30;2.05;;;;;;;;;;6149072;23;20025;-81
2022/04/05 15:11:57;;;;;;;2.25;2.05;;;;;;;;;;6151187;23;20025;-81
2022/04/05 15:14:25;;;;;;;1.80;1.70;;;;;;;;;;6178162;23;20040;-81
2022/04/05 15:16:59;;;;;;;1.67;1.50;;;;;;;;;;6157629;23;20033;-80
2022/04/05 15:19:27;;;;;;;1.70;1.60;;;;;;;;;;6187736;23;20016;-80
2022/04/05 15:21:55;;;;;;;3.00;2.45;;;;;;;;;;6182592;23;20073;-80